createdAt,value
2019-02-20T00:00:57.182Z,4.46
2019-02-20T00:02:03.154Z,4.58
2019-02-20T00:03:09.154Z,4.75
2019-02-20T00:04:15.090Z,4.72
2019-02-20T00:05:21.040Z,4.67
2019-02-20T00:06:26.969Z,4.53
2019-02-20T00:07:32.968Z,4.58
2019-02-20T00:08:38.553Z,4.73
2019-02-20T00:09:44.271Z,4.71
2019-02-20T00:10:50.189Z,4.71
2019-02-20T00:11:56.127Z,4.78
2019-02-20T00:13:02.768Z,4.78
2019-02-20T00:14:09.204Z,4.68
2019-02-20T00:15:15.169Z,4.91
2019-02-20T00:16:21.046Z,4.94
2019-02-20T00:17:26.984Z,5.09
2019-02-20T00:18:32.887Z,5.10
2019-02-20T00:19:38.797Z,4.92
2019-02-20T00:20:44.739Z,4.88
2019-02-20T00:21:50.680Z,4.89
2019-02-20T00:22:56.641Z,4.82
2019-02-20T00:24:02.586Z,4.81
2019-02-20T00:25:07.827Z,4.86
2019-02-20T00:26:13.759Z,4.99
2019-02-20T00:27:19.674Z,4.95
2019-02-20T00:28:25.591Z,5.07
2019-02-20T00:29:31.510Z,5.08
2019-02-20T00:30:37.411Z,5.16
2019-02-20T00:31:43.338Z,5.18
2019-02-20T00:32:48.948Z,5.19
2019-02-20T00:33:55.088Z,5.04
2019-02-20T00:35:01.649Z,4.99
2019-02-20T00:36:07.589Z,4.95
2019-02-20T00:37:13.518Z,4.93
2019-02-20T00:38:19.473Z,4.85
2019-02-20T00:39:25.425Z,4.77
2019-02-20T00:40:31.315Z,4.74
2019-02-20T00:41:37.324Z,4.66
2019-02-20T00:42:43.270Z,4.72
2019-02-20T00:43:48.967Z,4.75
2019-02-20T00:44:57.160Z,4.60
2019-02-20T00:46:03.210Z,4.50
2019-02-20T00:47:11.286Z,4.42
2019-02-20T00:49:50.035Z,4.47
2019-02-20T00:50:56.093Z,4.48
2019-02-20T00:52:12.537Z,4.49
2019-02-20T00:53:18.307Z,4.58
2019-02-20T00:54:24.233Z,4.52
2019-02-20T00:55:30.121Z,4.42
2019-02-20T00:56:36.068Z,4.52
2019-02-20T00:57:41.994Z,4.44
2019-02-20T00:58:47.947Z,4.55
2019-02-20T00:59:53.854Z,4.55
2019-02-20T01:00:59.745Z,4.46
2019-02-20T01:02:05.322Z,4.37
2019-02-20T01:03:11.329Z,4.29
2019-02-20T01:04:17.261Z,4.17
2019-02-20T01:05:22.849Z,4.19
2019-02-20T01:06:28.760Z,4.25
2019-02-20T01:07:34.690Z,4.54
2019-02-20T01:08:40.685Z,4.47
2019-02-20T01:09:46.258Z,4.78
2019-02-20T01:10:51.486Z,4.79
2019-02-20T01:11:57.062Z,4.61
2019-02-20T01:13:03.021Z,4.48
2019-02-20T01:14:08.915Z,4.34
2019-02-20T01:15:14.481Z,4.55
2019-02-20T01:16:21.299Z,4.50
2019-02-20T01:17:28.451Z,4.63
2019-02-20T01:18:34.394Z,4.80
2019-02-20T01:19:40.351Z,4.83
2019-02-20T01:20:45.920Z,4.82
2019-02-20T01:21:51.909Z,4.79
2019-02-20T01:22:59.832Z,4.74
2019-02-20T01:24:03.850Z,4.88
2019-02-20T01:25:09.117Z,4.90
2019-02-20T01:26:15.272Z,5.00
2019-02-20T01:27:21.211Z,4.97
2019-02-20T01:28:27.151Z,4.99
2019-02-20T01:29:33.085Z,5.23
2019-02-20T01:30:38.617Z,5.20
2019-02-20T01:31:44.558Z,5.33
2019-02-20T01:32:50.467Z,5.28
2019-02-20T01:33:56.466Z,5.27
2019-02-20T01:35:02.375Z,5.22
2019-02-20T01:36:08.283Z,5.26
2019-02-20T01:37:14.218Z,5.35
2019-02-20T01:38:20.119Z,5.43
2019-02-20T01:39:26.043Z,5.47
2019-02-20T01:40:31.985Z,5.45
2019-02-20T01:41:37.886Z,5.53
2019-02-20T01:42:43.864Z,5.48
2019-02-20T01:43:49.813Z,5.65
2019-02-20T01:44:55.740Z,5.66
2019-02-20T01:46:01.728Z,5.72
2019-02-20T01:47:07.639Z,5.83
2019-02-20T01:48:13.566Z,5.73
2019-02-20T01:49:19.489Z,5.57
2019-02-20T01:50:25.415Z,5.55
2019-02-20T01:51:31.302Z,5.66
2019-02-20T01:52:36.999Z,5.51
2019-02-20T01:53:42.963Z,5.39
2019-02-20T01:54:48.855Z,5.40
2019-02-20T01:55:54.788Z,5.25
2019-02-20T01:57:00.752Z,5.15
2019-02-20T01:58:06.395Z,5.18
2019-02-20T01:59:13.353Z,5.14
2019-02-20T02:00:20.032Z,5.18
2019-02-20T02:01:25.999Z,5.09
2019-02-20T02:02:31.879Z,4.95
2019-02-20T02:03:39.045Z,5.08
2019-02-20T02:04:43.787Z,4.94
2019-02-20T02:05:49.679Z,4.85
2019-02-20T02:06:55.578Z,4.75
2019-02-20T02:08:01.491Z,4.83
2019-02-20T02:09:06.743Z,4.78
2019-02-20T02:10:12.309Z,4.70
2019-02-20T02:11:18.146Z,4.72
2019-02-20T02:12:24.019Z,4.77
2019-02-20T02:13:29.925Z,4.80
2019-02-20T02:14:35.816Z,5.00
2019-02-20T02:15:41.732Z,5.00
2019-02-20T02:16:47.687Z,5.13
2019-02-20T02:17:53.620Z,5.14
2019-02-20T02:18:59.600Z,4.95
2019-02-20T02:20:04.876Z,5.04
2019-02-20T02:21:10.755Z,4.96
2019-02-20T02:22:16.659Z,5.00
2019-02-20T02:23:22.603Z,4.99
2019-02-20T02:24:28.532Z,5.20
2019-02-20T02:25:34.516Z,5.23
2019-02-20T02:26:40.539Z,5.11
2019-02-20T02:27:47.046Z,5.02
2019-02-20T02:28:52.959Z,5.31
2019-02-20T02:29:58.895Z,5.27
2019-02-20T02:31:04.832Z,5.33
2019-02-20T02:32:10.752Z,5.29
2019-02-20T02:33:16.651Z,5.18
2019-02-20T02:34:22.604Z,5.28
2019-02-20T02:35:28.515Z,5.20
2019-02-20T02:36:34.384Z,5.15
2019-02-20T02:37:40.300Z,5.15
2019-02-20T02:38:46.256Z,5.10
2019-02-20T02:39:52.152Z,5.09
2019-02-20T02:40:58.033Z,5.08
2019-02-20T02:42:04.670Z,5.12
2019-02-20T02:43:10.659Z,5.01
2019-02-20T02:44:16.571Z,5.16
2019-02-20T02:45:22.607Z,5.35
2019-02-20T02:46:28.479Z,5.26
2019-02-20T02:47:34.382Z,5.22
2019-02-20T02:48:40.419Z,5.20
2019-02-20T02:49:46.341Z,5.39
2019-02-20T02:50:52.218Z,5.22
2019-02-20T02:51:58.136Z,5.29
2019-02-20T02:53:04.069Z,5.39
2019-02-20T02:54:09.995Z,5.24
2019-02-20T02:55:15.879Z,5.23
2019-02-20T02:56:21.769Z,5.17
2019-02-20T02:57:27.662Z,5.11
2019-02-20T02:58:33.559Z,5.13
2019-02-20T02:59:39.487Z,5.04
2019-02-20T03:00:45.437Z,5.02
2019-02-20T03:01:51.326Z,5.13
2019-02-20T03:02:57.245Z,5.02
2019-02-20T03:04:03.173Z,5.05
2019-02-20T03:05:08.424Z,4.95
2019-02-20T03:06:14.320Z,5.14
2019-02-20T03:07:19.852Z,4.94
2019-02-20T03:08:25.826Z,4.91
2019-02-20T03:09:31.737Z,4.75
2019-02-20T03:10:37.655Z,4.67
2019-02-20T03:11:43.560Z,4.54
2019-02-20T03:12:49.472Z,4.47
2019-02-20T03:13:55.386Z,4.54
2019-02-20T03:15:01.300Z,4.47
2019-02-20T03:16:07.222Z,4.44
2019-02-20T03:17:13.198Z,4.39
2019-02-20T03:18:19.138Z,4.39
2019-02-20T03:19:25.085Z,4.40
2019-02-20T03:20:31.039Z,4.42
2019-02-20T03:21:36.959Z,4.55
2019-02-20T03:22:42.864Z,4.63
2019-02-20T03:23:48.779Z,4.67
2019-02-20T03:24:54.791Z,4.51
2019-02-20T03:26:00.690Z,4.41
2019-02-20T03:27:06.594Z,4.39
2019-02-20T03:28:12.519Z,4.35
2019-02-20T03:29:18.490Z,4.34
2019-02-20T03:30:24.426Z,4.49
2019-02-20T03:31:30.313Z,4.58
2019-02-20T03:32:36.217Z,4.42
2019-02-20T03:33:42.184Z,4.47
2019-02-20T03:34:48.103Z,4.40
2019-02-20T03:35:54.050Z,4.51
2019-02-20T03:36:59.580Z,4.40
2019-02-20T03:38:04.821Z,4.28
2019-02-20T03:39:10.751Z,4.28
2019-02-20T03:40:16.686Z,4.26
2019-02-20T03:41:22.655Z,4.25
2019-02-20T03:42:28.588Z,4.30
2019-02-20T03:43:34.508Z,4.22
2019-02-20T03:44:40.442Z,4.32
2019-02-20T03:45:47.040Z,4.36
2019-02-20T03:46:52.986Z,4.38
2019-02-20T03:47:58.914Z,4.19
2019-02-20T03:49:04.529Z,4.25
2019-02-20T03:50:10.668Z,4.35
2019-02-20T03:51:16.536Z,4.29
2019-02-20T03:52:22.434Z,4.38
2019-02-20T03:53:28.408Z,4.57
2019-02-20T03:54:34.009Z,4.34
2019-02-20T03:55:39.905Z,4.29
2019-02-20T03:56:45.786Z,4.43
2019-02-20T03:57:51.917Z,4.59
2019-02-20T03:58:57.437Z,4.47
2019-02-20T04:00:02.695Z,4.29
2019-02-20T04:01:08.638Z,4.25
2019-02-20T04:02:14.577Z,4.17
2019-02-20T04:03:20.459Z,4.11
2019-02-20T04:04:26.414Z,4.35
2019-02-20T04:05:32.363Z,4.24
2019-02-20T04:06:37.902Z,4.19
2019-02-20T04:07:43.850Z,4.17
2019-02-20T04:08:49.818Z,4.15
2019-02-20T04:09:55.738Z,4.15
2019-02-20T04:11:01.668Z,4.21
2019-02-20T04:12:07.564Z,4.36
2019-02-20T04:13:13.477Z,4.64
2019-02-20T04:14:19.446Z,4.47
2019-02-20T04:15:25.373Z,4.44
2019-02-20T04:16:30.923Z,4.41
2019-02-20T04:17:36.521Z,4.43
2019-02-20T04:18:42.515Z,4.47
2019-02-20T04:19:48.426Z,4.35
2019-02-20T04:20:54.399Z,4.36
2019-02-20T04:22:00.353Z,4.42
2019-02-20T04:23:06.321Z,4.44
2019-02-20T04:24:12.230Z,4.72
2019-02-20T04:25:18.160Z,4.72
2019-02-20T04:26:24.130Z,4.85
2019-02-20T04:27:30.080Z,4.91
2019-02-20T04:28:36.052Z,4.74
2019-02-20T04:29:42.178Z,4.71
2019-02-20T04:30:48.129Z,4.84
2019-02-20T04:31:54.058Z,4.85
2019-02-20T04:33:00.026Z,4.84
2019-02-20T04:34:05.922Z,4.94
2019-02-20T04:35:11.488Z,4.85
2019-02-20T04:36:17.411Z,4.73
2019-02-20T04:37:23.292Z,4.76
2019-02-20T04:38:29.215Z,4.62
2019-02-20T04:39:35.143Z,4.64
2019-02-20T04:40:41.082Z,4.63
2019-02-20T04:41:47.022Z,4.68
2019-02-20T04:42:52.994Z,4.87
2019-02-20T04:43:58.925Z,4.86
2019-02-20T04:45:04.192Z,4.62
2019-02-20T04:46:10.115Z,4.74
2019-02-20T04:47:16.104Z,4.69
2019-02-20T04:48:22.036Z,4.74
2019-02-20T04:49:27.973Z,4.79
2019-02-20T04:50:33.928Z,4.78
2019-02-20T04:51:39.817Z,4.80
2019-02-20T04:52:45.755Z,4.97
2019-02-20T04:53:51.713Z,4.84
2019-02-20T04:54:57.622Z,4.76
2019-02-20T04:56:03.559Z,4.75
2019-02-20T04:57:09.478Z,4.65
2019-02-20T04:58:16.605Z,4.80
2019-02-20T04:59:22.601Z,4.81
2019-02-20T05:00:28.527Z,4.71
2019-02-20T05:01:34.462Z,4.66
2019-02-20T05:02:40.361Z,4.68
2019-02-20T05:03:46.293Z,4.64
2019-02-20T05:04:51.811Z,4.74
2019-02-20T05:05:57.744Z,4.64
2019-02-20T05:07:03.690Z,4.55
2019-02-20T05:08:09.355Z,4.51
2019-02-20T05:09:15.339Z,4.60
2019-02-20T05:10:21.316Z,4.73
2019-02-20T05:11:28.133Z,4.87
2019-02-20T05:12:34.604Z,4.92
2019-02-20T05:13:40.563Z,4.72
2019-02-20T05:14:46.484Z,4.67
2019-02-20T05:15:52.395Z,4.74
2019-02-20T05:16:58.385Z,4.75
2019-02-20T05:18:03.916Z,4.75
2019-02-20T05:19:09.926Z,4.64
2019-02-20T05:20:15.883Z,4.48
2019-02-20T05:21:23.086Z,4.43
2019-02-20T05:22:29.012Z,4.38
2019-02-20T05:23:35.060Z,4.40
2019-02-20T05:24:41.019Z,4.41
2019-02-20T05:25:46.930Z,4.49
2019-02-20T05:26:52.982Z,4.68
2019-02-20T05:27:58.980Z,4.63
2019-02-20T05:29:04.903Z,4.61
2019-02-20T05:30:10.195Z,4.67
2019-02-20T05:31:16.668Z,4.79
2019-02-20T05:32:22.773Z,4.78
2019-02-20T05:33:29.303Z,4.92
2019-02-20T05:34:35.201Z,4.92
2019-02-20T05:35:41.107Z,4.83
2019-02-20T05:36:47.062Z,4.92
2019-02-20T05:37:52.644Z,4.96
2019-02-20T05:38:58.620Z,5.03
2019-02-20T05:40:04.134Z,4.87
2019-02-20T05:41:10.033Z,4.75
2019-02-20T05:42:15.941Z,4.99
2019-02-20T05:43:21.902Z,5.05
2019-02-20T05:44:27.814Z,5.01
2019-02-20T05:45:33.738Z,4.89
2019-02-20T05:46:39.701Z,4.92
2019-02-20T05:47:45.642Z,5.04
2019-02-20T05:48:51.565Z,4.98
2019-02-20T05:49:57.439Z,4.95
2019-02-20T05:51:03.367Z,4.98
2019-02-20T05:52:09.345Z,5.08
2019-02-20T05:53:15.260Z,5.02
2019-02-20T05:54:34.021Z,4.84
2019-02-20T05:55:33.918Z,4.85
2019-02-20T05:56:39.859Z,4.86
2019-02-20T05:57:45.898Z,4.74
2019-02-20T05:58:51.822Z,4.77
2019-02-20T05:59:57.699Z,4.81
2019-02-20T06:01:03.670Z,4.78
2019-02-20T06:02:10.044Z,4.89
2019-02-20T06:03:17.204Z,4.97
2019-02-20T06:04:23.149Z,5.11
2019-02-20T06:05:29.098Z,5.12
2019-02-20T06:06:35.027Z,5.08
2019-02-20T06:07:40.904Z,5.00
2019-02-20T06:08:46.863Z,4.88
2019-02-20T06:09:52.746Z,4.81
2019-02-20T06:10:58.637Z,5.17
2019-02-20T06:12:04.232Z,5.13
2019-02-20T06:13:10.131Z,4.98
2019-02-20T06:14:17.021Z,5.11
2019-02-20T06:15:22.932Z,5.00
2019-02-20T06:16:29.222Z,4.90
2019-02-20T06:17:35.130Z,4.69
2019-02-20T06:18:41.053Z,4.63
2019-02-20T06:19:46.982Z,4.60
2019-02-20T06:20:52.863Z,4.73
2019-02-20T06:21:58.766Z,4.78
2019-02-20T06:23:04.717Z,4.75
2019-02-20T06:24:10.628Z,4.71
2019-02-20T06:25:16.534Z,4.79
2019-02-20T06:26:22.509Z,4.86
2019-02-20T06:27:28.441Z,4.92
2019-02-20T06:28:34.317Z,4.82
2019-02-20T06:29:40.221Z,4.67
2019-02-20T06:30:46.135Z,4.67
2019-02-20T06:31:52.055Z,4.91
2019-02-20T06:32:58.081Z,5.06
2019-02-20T06:34:04.048Z,5.14
2019-02-20T06:35:09.577Z,4.91
2019-02-20T06:36:16.175Z,4.73
2019-02-20T06:37:22.569Z,4.77
2019-02-20T06:38:28.464Z,5.02
2019-02-20T06:39:34.376Z,5.09
2019-02-20T06:40:40.308Z,5.00
2019-02-20T06:41:46.207Z,4.93
2019-02-20T06:42:52.112Z,5.10
2019-02-20T06:43:58.048Z,5.10
2019-02-20T06:45:03.276Z,5.00
2019-02-20T06:46:09.215Z,5.17
2019-02-20T06:47:15.156Z,5.24
2019-02-20T06:48:21.088Z,5.10
2019-02-20T06:49:27.050Z,5.01
2019-02-20T06:50:32.938Z,5.01
2019-02-20T06:51:38.906Z,4.89
2019-02-20T06:52:44.823Z,4.86
2019-02-20T06:53:53.107Z,4.93
2019-02-20T06:54:59.033Z,4.90
2019-02-20T06:56:04.985Z,5.06
2019-02-20T06:57:11.215Z,5.24
2019-02-20T06:58:17.952Z,5.18
2019-02-20T06:59:23.914Z,5.03
2019-02-20T07:00:29.824Z,4.95
2019-02-20T07:01:35.723Z,5.01
2019-02-20T07:02:41.588Z,5.06
2019-02-20T07:03:54.123Z,5.07
2019-02-20T07:05:11.100Z,5.09
2019-02-20T07:08:08.021Z,5.10
2019-02-20T07:09:18.832Z,5.15
2019-02-20T07:10:25.640Z,5.22
2019-02-20T07:11:39.702Z,5.01
2019-02-20T07:12:45.719Z,5.07
2019-02-20T07:14:06.539Z,5.13
2019-02-20T07:15:19.288Z,5.23
2019-02-20T07:16:42.865Z,5.31
2019-02-20T07:17:57.568Z,5.38
2019-02-20T07:19:05.192Z,5.26
2019-02-20T07:20:45.733Z,5.29
2019-02-20T07:21:55.694Z,5.30
2019-02-20T07:23:05.463Z,5.20
2019-02-20T07:24:26.903Z,5.21
2019-02-20T07:25:36.476Z,5.40
2019-02-20T07:26:45.652Z,5.46
2019-02-20T07:28:10.840Z,5.52
2019-02-20T07:29:31.706Z,5.45
2019-02-20T07:30:37.271Z,5.48
2019-02-20T07:31:43.232Z,5.47
2019-02-20T07:32:49.352Z,5.46
2019-02-20T07:33:55.353Z,5.51
2019-02-20T07:35:01.250Z,5.60
2019-02-20T07:36:07.194Z,5.66
2019-02-20T07:37:13.126Z,5.77
2019-02-20T07:38:20.251Z,5.82
2019-02-20T07:39:26.154Z,5.84
2019-02-20T07:40:32.072Z,5.80
2019-02-20T07:41:38.006Z,5.82
2019-02-20T07:42:43.664Z,5.96
2019-02-20T07:43:49.632Z,5.88
2019-02-20T07:44:55.602Z,5.81
2019-02-20T07:46:01.509Z,5.88
2019-02-20T07:47:07.428Z,5.79
2019-02-20T07:48:13.384Z,5.84
2019-02-20T07:49:19.323Z,5.88
2019-02-20T07:50:25.255Z,5.95
2019-02-20T07:51:32.447Z,5.97
2019-02-20T07:52:38.398Z,5.90
2019-02-20T07:53:44.331Z,5.90
2019-02-20T07:54:50.258Z,5.88
2019-02-20T07:55:56.194Z,5.70
2019-02-20T07:57:02.095Z,5.83
2019-02-20T07:58:07.992Z,5.88
2019-02-20T07:59:13.953Z,5.85
2019-02-20T08:00:19.978Z,6.01
2019-02-20T08:01:29.635Z,6.07
2019-02-20T08:02:35.544Z,6.02
2019-02-20T08:03:41.461Z,6.07
2019-02-20T08:04:46.993Z,6.10
2019-02-20T08:05:52.909Z,6.11
2019-02-20T08:06:58.822Z,6.19
2019-02-20T08:08:04.741Z,6.27
2019-02-20T08:09:10.672Z,6.27
2019-02-20T08:10:16.547Z,6.22
2019-02-20T08:11:22.431Z,6.26
2019-02-20T08:12:28.406Z,6.28
2019-02-20T08:13:39.285Z,6.44
2019-02-20T08:14:40.259Z,6.57
2019-02-20T08:15:46.138Z,6.62
2019-02-20T08:16:52.890Z,6.40
2019-02-20T08:17:58.019Z,6.50
2019-02-20T08:19:03.953Z,6.55
2019-02-20T08:20:09.174Z,6.61
2019-02-20T08:21:15.085Z,6.64
2019-02-20T08:22:20.950Z,6.61
2019-02-20T08:23:26.884Z,6.81
2019-02-20T08:24:32.817Z,6.73
2019-02-20T08:25:38.748Z,6.65
2019-02-20T08:26:44.658Z,6.67
2019-02-20T08:27:50.541Z,6.80
2019-02-20T08:28:56.467Z,6.81
2019-02-20T08:30:02.363Z,6.84
2019-02-20T08:31:08.255Z,6.57
2019-02-20T08:32:14.152Z,6.57
2019-02-20T08:33:20.064Z,6.58
2019-02-20T08:34:25.998Z,6.65
2019-02-20T08:35:31.891Z,6.69
2019-02-20T08:36:37.823Z,6.89
2019-02-20T08:37:43.751Z,6.92
2019-02-20T08:38:49.713Z,6.95
2019-02-20T08:39:55.677Z,7.09
2019-02-20T08:41:01.568Z,7.17
2019-02-20T08:42:07.531Z,7.22
2019-02-20T08:43:14.002Z,7.24
2019-02-20T08:44:20.076Z,7.37
2019-02-20T08:45:25.968Z,7.42
2019-02-20T08:46:31.862Z,7.41
2019-02-20T08:47:37.779Z,7.42
2019-02-20T08:48:43.840Z,7.44
2019-02-20T08:49:49.796Z,7.54
2019-02-20T08:50:55.717Z,7.42
2019-02-20T08:52:01.599Z,7.37
2019-02-20T08:53:09.470Z,7.18
2019-02-20T08:54:15.416Z,7.25
2019-02-20T08:55:21.312Z,7.35
2019-02-20T08:56:27.230Z,7.53
2019-02-20T08:57:33.116Z,7.62
2019-02-20T08:58:39.075Z,7.71
2019-02-20T08:59:44.996Z,7.81
2019-02-20T09:00:50.538Z,7.87
2019-02-20T09:01:56.443Z,7.86
2019-02-20T09:03:02.351Z,7.77
2019-02-20T09:04:08.783Z,7.84
2019-02-20T09:05:14.907Z,7.99
2019-02-20T09:06:20.480Z,8.03
2019-02-20T09:07:26.392Z,8.18
2019-02-20T09:08:33.153Z,8.05
2019-02-20T09:09:39.135Z,8.13
2019-02-20T09:10:45.052Z,8.28
2019-02-20T09:11:50.969Z,8.25
2019-02-20T09:12:56.873Z,8.09
2019-02-20T09:14:02.811Z,8.13
2019-02-20T09:15:08.038Z,8.23
2019-02-20T09:16:13.911Z,8.38
2019-02-20T09:17:19.826Z,8.56
2019-02-20T09:18:25.727Z,8.57
2019-02-20T09:19:31.622Z,8.69
2019-02-20T09:20:37.553Z,8.67
2019-02-20T09:21:43.453Z,8.52
2019-02-20T09:22:49.334Z,8.58
2019-02-20T09:23:55.261Z,8.60
2019-02-20T09:25:01.974Z,8.73
2019-02-20T09:26:08.007Z,8.60
2019-02-20T09:27:13.931Z,8.65
2019-02-20T09:28:19.843Z,8.73
2019-02-20T09:29:26.257Z,8.75
2019-02-20T09:30:32.196Z,8.69
2019-02-20T09:31:38.130Z,8.70
2019-02-20T09:32:44.053Z,8.74
2019-02-20T09:33:49.961Z,8.51
2019-02-20T09:34:55.869Z,8.67
2019-02-20T09:36:01.821Z,8.59
2019-02-20T09:37:07.752Z,8.70
2019-02-20T09:38:13.676Z,8.87
2019-02-20T09:39:32.712Z,8.79
2019-02-20T09:40:38.582Z,8.84
2019-02-20T09:41:44.499Z,9.01
2019-02-20T09:42:49.677Z,8.79
2019-02-20T09:43:55.606Z,8.64
2019-02-20T09:45:01.519Z,8.49
2019-02-20T09:46:07.870Z,8.74
2019-02-20T09:47:14.277Z,8.71
2019-02-20T09:48:20.214Z,8.67
2019-02-20T09:49:26.160Z,8.68
2019-02-20T09:50:32.099Z,8.76
2019-02-20T09:51:37.987Z,8.82
2019-02-20T09:52:51.886Z,8.89
2019-02-20T09:53:49.466Z,8.97
2019-02-20T09:54:55.433Z,8.93
2019-02-20T09:56:01.406Z,8.99
2019-02-20T09:57:07.285Z,9.04
2019-02-20T09:58:13.224Z,9.10
2019-02-20T09:59:19.185Z,9.10
2019-02-20T10:00:25.122Z,9.06
2019-02-20T10:01:32.153Z,9.20
2019-02-20T10:02:37.065Z,9.23
2019-02-20T10:03:42.973Z,9.26
2019-02-20T10:04:48.961Z,9.21
2019-02-20T10:05:54.980Z,9.30
2019-02-20T10:07:01.788Z,9.21
2019-02-20T10:08:08.105Z,9.37
2019-02-20T10:09:14.094Z,9.52
2019-02-20T10:10:20.271Z,9.52
2019-02-20T10:11:26.808Z,9.35
2019-02-20T10:12:33.381Z,9.21
2019-02-20T10:13:39.594Z,9.42
2019-02-20T10:14:45.521Z,9.53
2019-02-20T10:15:51.428Z,9.70
2019-02-20T10:16:56.963Z,9.53
2019-02-20T10:18:02.883Z,9.53
2019-02-20T10:19:08.949Z,9.50
2019-02-20T10:20:14.550Z,9.32
2019-02-20T10:21:20.563Z,9.43
2019-02-20T10:22:26.540Z,9.63
2019-02-20T10:23:32.483Z,9.59
2019-02-20T10:24:38.441Z,9.42
2019-02-20T10:25:44.324Z,9.53
2019-02-20T10:26:50.252Z,9.41
2019-02-20T10:27:56.167Z,9.35
2019-02-20T10:29:02.305Z,9.49
2019-02-20T10:30:07.582Z,9.56
2019-02-20T10:31:13.521Z,9.60
2019-02-20T10:32:19.434Z,9.72
2019-02-20T10:33:25.442Z,9.50
2019-02-20T10:34:31.342Z,9.67
2019-02-20T10:35:37.268Z,9.77
2019-02-20T10:36:43.258Z,9.76
2019-02-20T10:37:49.170Z,9.73
2019-02-20T10:38:55.077Z,9.74
2019-02-20T10:40:01.019Z,9.65
2019-02-20T10:41:07.035Z,9.73
2019-02-20T10:42:12.938Z,9.78
2019-02-20T10:43:18.824Z,10.02
2019-02-20T10:44:24.720Z,10.07
2019-02-20T10:45:30.731Z,9.94
2019-02-20T10:46:36.801Z,10.14
2019-02-20T10:47:42.894Z,10.22
2019-02-20T10:48:49.068Z,10.17
2019-02-20T10:49:55.914Z,10.17
2019-02-20T10:51:02.307Z,10.21
2019-02-20T10:52:08.533Z,10.16
2019-02-20T10:53:14.834Z,10.11
2019-02-20T10:54:20.878Z,10.14
2019-02-20T10:55:26.832Z,10.15
2019-02-20T10:56:32.417Z,10.19
2019-02-20T10:57:37.989Z,10.27
2019-02-20T10:58:44.012Z,10.33
2019-02-20T10:59:49.903Z,10.40
2019-02-20T11:00:55.851Z,10.48
2019-02-20T11:02:01.754Z,10.59
2019-02-20T11:03:07.674Z,10.59
2019-02-20T11:04:13.284Z,10.66
2019-02-20T11:05:18.852Z,10.63
2019-02-20T11:06:24.762Z,10.46
2019-02-20T11:07:30.691Z,10.66
2019-02-20T11:08:36.589Z,10.80
2019-02-20T11:09:42.163Z,10.77
2019-02-20T11:10:48.090Z,10.59
2019-02-20T11:11:54.531Z,10.59
2019-02-20T11:13:00.047Z,10.75
2019-02-20T11:14:05.257Z,10.92
2019-02-20T11:15:10.622Z,10.92
2019-02-20T11:16:16.558Z,11.06
2019-02-20T11:17:22.539Z,11.02
2019-02-20T11:18:28.447Z,10.88
2019-02-20T11:19:34.387Z,10.61
2019-02-20T11:20:48.306Z,10.66
2019-02-20T11:21:46.998Z,10.83
2019-02-20T11:22:52.871Z,10.98
2019-02-20T11:23:58.838Z,11.09
2019-02-20T11:25:04.061Z,11.01
2019-02-20T11:26:17.620Z,10.95
2019-02-20T11:27:15.948Z,11.11
2019-02-20T11:28:26.964Z,11.20
2019-02-20T11:29:27.923Z,11.31
2019-02-20T11:30:33.889Z,11.08
2019-02-20T11:31:40.236Z,11.12
2019-02-20T11:32:46.683Z,11.17
2019-02-20T11:33:52.629Z,10.96
2019-02-20T11:34:58.515Z,11.07
2019-02-20T11:36:04.100Z,11.16
2019-02-20T11:37:10.055Z,11.25
2019-02-20T11:38:16.002Z,11.33
2019-02-20T11:39:21.916Z,11.40
2019-02-20T11:40:27.843Z,11.45
2019-02-20T11:41:33.772Z,11.54
2019-02-20T11:42:39.669Z,11.51
2019-02-20T11:43:45.595Z,11.70
2019-02-20T11:44:51.493Z,11.84
2019-02-20T11:45:57.463Z,12.01
2019-02-20T11:47:03.492Z,12.15
2019-02-20T11:48:09.368Z,12.15
2019-02-20T11:49:15.270Z,11.52
2019-02-20T11:50:21.186Z,11.67
2019-02-20T11:51:27.322Z,11.67
2019-02-20T11:52:38.439Z,11.53
2019-02-20T11:53:39.171Z,11.61
2019-02-20T11:54:45.125Z,11.56
2019-02-20T11:55:51.102Z,11.59
2019-02-20T11:56:57.008Z,11.64
2019-02-20T11:58:02.953Z,11.39
2019-02-20T11:59:08.929Z,11.13
2019-02-20T12:00:15.882Z,11.35
2019-02-20T12:01:21.852Z,11.50
2019-02-20T12:02:27.820Z,11.33
2019-02-20T12:03:33.757Z,11.29
2019-02-20T12:04:39.667Z,11.44
2019-02-20T12:05:45.654Z,11.34
2019-02-20T12:06:51.616Z,11.31
2019-02-20T12:07:57.557Z,11.03
2019-02-20T12:09:03.194Z,11.13
2019-02-20T12:10:08.794Z,11.24
2019-02-20T12:11:14.461Z,11.47
2019-02-20T12:12:20.390Z,11.57
2019-02-20T12:13:26.468Z,11.49
2019-02-20T12:14:32.984Z,11.42
2019-02-20T12:15:38.898Z,11.57
2019-02-20T12:16:44.817Z,11.73
2019-02-20T12:17:50.396Z,11.64
2019-02-20T12:18:56.321Z,11.67
2019-02-20T12:20:02.442Z,11.50
2019-02-20T12:21:08.356Z,11.45
2019-02-20T12:22:14.310Z,11.30
2019-02-20T12:23:20.206Z,11.44
2019-02-20T12:24:26.162Z,11.56
2019-02-20T12:25:31.735Z,11.74
2019-02-20T12:26:37.680Z,11.99
2019-02-20T12:27:43.609Z,11.84
2019-02-20T12:28:49.486Z,12.04
2019-02-20T12:29:55.403Z,12.16
2019-02-20T12:31:01.448Z,11.93
2019-02-20T12:32:07.108Z,11.90
2019-02-20T12:33:13.013Z,11.78
2019-02-20T12:34:18.951Z,11.71
2019-02-20T12:35:24.881Z,11.89
2019-02-20T12:36:30.819Z,12.14
2019-02-20T12:37:36.727Z,12.25
2019-02-20T12:38:42.664Z,12.33
2019-02-20T12:39:48.576Z,12.08
2019-02-20T12:40:54.571Z,11.81
2019-02-20T12:42:00.655Z,11.93
2019-02-20T12:43:06.589Z,12.08
2019-02-20T12:44:12.610Z,12.25
2019-02-20T12:45:18.549Z,12.15
2019-02-20T12:46:24.506Z,12.06
2019-02-20T12:47:30.404Z,12.13
2019-02-20T12:48:36.320Z,12.09
2019-02-20T12:49:42.258Z,11.96
2019-02-20T12:50:49.103Z,12.17
2019-02-20T12:51:55.079Z,12.20
2019-02-20T12:53:01.040Z,11.97
2019-02-20T12:54:06.967Z,12.04
2019-02-20T12:55:12.380Z,12.12
2019-02-20T12:56:21.748Z,12.11
2019-02-20T12:57:27.397Z,11.90
2019-02-20T12:58:33.323Z,12.19
2019-02-20T12:59:38.907Z,12.45
2019-02-20T13:00:44.855Z,12.10
2019-02-20T13:01:50.794Z,12.01
2019-02-20T13:02:56.748Z,12.27
2019-02-20T13:04:02.711Z,12.23
2019-02-20T13:05:07.981Z,11.98
2019-02-20T13:06:13.927Z,12.04
2019-02-20T13:07:19.480Z,12.30
2019-02-20T13:08:25.460Z,12.34
2019-02-20T13:09:30.795Z,12.23
2019-02-20T13:10:36.864Z,12.34
2019-02-20T13:11:42.763Z,11.72
2019-02-20T13:12:48.702Z,11.50
2019-02-20T13:13:54.611Z,11.50
2019-02-20T13:15:00.542Z,11.32
2019-02-20T13:16:09.571Z,11.37
2019-02-20T13:17:12.410Z,11.33
2019-02-20T13:18:18.439Z,11.32
2019-02-20T13:19:24.265Z,11.26
2019-02-20T13:20:30.206Z,11.36
2019-02-20T13:21:36.150Z,11.28
2019-02-20T13:22:42.164Z,11.28
2019-02-20T13:23:48.228Z,11.23
2019-02-20T13:24:54.258Z,11.19
2019-02-20T13:26:00.258Z,11.43
2019-02-20T13:27:08.577Z,11.45
2019-02-20T13:28:12.344Z,11.60
2019-02-20T13:29:18.357Z,11.58
2019-02-20T13:30:24.489Z,11.66
2019-02-20T13:31:30.468Z,11.82
2019-02-20T13:32:36.453Z,11.72
2019-02-20T13:33:42.326Z,11.76
2019-02-20T13:34:48.303Z,11.82
2019-02-20T13:35:54.352Z,11.75
2019-02-20T13:37:00.464Z,11.68
2019-02-20T13:38:08.376Z,11.74
2019-02-20T13:39:14.401Z,11.80
2019-02-20T13:40:20.008Z,11.73
2019-02-20T13:41:25.939Z,11.56
2019-02-20T13:42:32.148Z,11.56
2019-02-20T13:43:37.960Z,11.33
2019-02-20T13:44:43.875Z,11.50
2019-02-20T13:45:49.885Z,11.57
2019-02-20T13:46:55.890Z,11.54
2019-02-20T13:48:01.827Z,11.59
2019-02-20T13:49:07.539Z,11.49
2019-02-20T13:50:13.028Z,11.42
2019-02-20T13:51:19.027Z,11.40
2019-02-20T13:52:24.762Z,11.66
2019-02-20T13:53:30.663Z,11.84
2019-02-20T13:54:36.631Z,12.22
2019-02-20T13:55:42.320Z,11.86
2019-02-20T13:56:48.465Z,11.76
2019-02-20T13:57:53.831Z,11.82
2019-02-20T13:58:59.478Z,11.72
2019-02-20T14:00:04.902Z,11.64
2019-02-20T14:01:10.564Z,11.61
2019-02-20T14:02:16.484Z,11.78
2019-02-20T14:03:22.075Z,11.97
2019-02-20T14:04:27.974Z,12.15
2019-02-20T14:05:34.027Z,11.91
2019-02-20T14:06:40.029Z,11.67
2019-02-20T14:07:45.989Z,11.85
2019-02-20T14:08:51.895Z,11.80
2019-02-20T14:09:58.240Z,11.49
2019-02-20T14:11:05.160Z,11.69
2019-02-20T14:12:11.398Z,11.61
2019-02-20T14:13:17.477Z,11.58
2019-02-20T14:14:23.509Z,11.44
2019-02-20T14:15:29.660Z,11.71
2019-02-20T14:16:35.657Z,11.68
2019-02-20T14:17:41.707Z,11.56
2019-02-20T14:18:51.394Z,11.49
2019-02-20T14:19:56.445Z,11.52
2019-02-20T14:21:02.375Z,11.49
2019-02-20T14:22:09.041Z,11.89
2019-02-20T14:23:15.575Z,12.03
2019-02-20T14:24:21.536Z,12.08
2019-02-20T14:25:27.466Z,11.99
2019-02-20T14:26:33.396Z,11.72
2019-02-20T14:27:39.371Z,11.70
2019-02-20T14:28:45.268Z,11.76
2019-02-20T14:29:52.778Z,11.54
2019-02-20T14:30:59.010Z,11.58
2019-02-20T14:32:04.616Z,11.65
2019-02-20T14:33:10.698Z,11.72
2019-02-20T14:34:16.627Z,11.51
2019-02-20T14:35:22.561Z,11.42
2019-02-20T14:36:28.587Z,11.53
2019-02-20T14:37:34.512Z,11.40